Search for airport 
image banner adimage banner ad
image banner ad

SSEP - São Sepé Airport

Located in São Sepé, Brazil

ICAO - SSEP, IATA -

Data provided by Airmate  

General information

Coordinates: S30°10'56" W53°34'46"
Elevation is 501 feet MSL.
Magnetic variation is -15° East
View others Airports in Rio Grande do Sul

Operational data

Open for public use
Current time UTC:
Current local time:
Weather at : SBSM - Santa Maria Airport ( 53 km )
METAR: SBSM 021500Z 11007KT 9999 FEW030 30/23 Q1008
TAF: TAF SBSM 020900Z 0212/0224 11008KT 9999 FEW030TCU TX28/0218Z TN22/0223Z PROB40 0218/0222 06008KT 6000 TSRA SCT012 FEW025CB RMK PAY
View NOTAMs / SUP AIP / TFR affecting this airport [VIEW]
Communications frequencies: [VIEW]

Runways:

RWY identifierQFULength (ft)Width (ft)SurfaceLDA (ft)
14374059GRE
32374059GRE

Airport contact information

Address: São Sepé Brazil

Satellite view of SSEP